Time;durP1;ratioP1;P1;durP2;ratioP2;P2;SDS_P1;SDS_P2;PMS_P1;PMS_P2;Temp;Humidity;BMP_temperature;BMP_pressure;BME280_temperature;BME280_humidity;BME280_pressure;Samples;Min_cycle;Max_cycle;Signal;HPM_P1;HPM_P2
2023/12/08 00:00:22;;;;;;;29.30;15.88;;;;;;;2.64;79.97;99693.81;5013922;28;20060;-82
2023/12/08 00:03:07;;;;;;;28.85;16.10;;;;;;;2.58;79.78;99679.56;5013655;28;20057;-82
2023/12/08 00:05:53;;;;;;;29.20;14.40;;;;;;;2.67;79.95;99696.13;5014262;28;20495;-79
2023/12/08 00:08:40;;;;;;;31.33;15.73;;;;;;;2.60;80.38;99680.22;5014559;28;20092;-81
2023/12/08 00:11:25;;;;;;;26.10;14.60;;;;;;;2.63;80.17;99687.72;5013538;28;20064;-80
2023/12/08 00:14:11;;;;;;;31.42;15.20;;;;;;;2.61;80.68;99687.09;5021026;28;20069;-80
2023/12/08 00:16:57;;;;;;;28.42;16.10;;;;;;;2.60;81.25;99682.84;5014149;28;20053;-81
2023/12/08 00:19:43;;;;;;;36.55;17.77;;;;;;;2.58;80.93;99686.63;5014458;28;20064;-82
2023/12/08 00:22:30;;;;;;;35.67;19.02;;;;;;;2.58;80.98;99694.50;5020788;28;20403;-80
2023/12/08 00:25:16;;;;;;;39.03;18.30;;;;;;;2.55;81.54;99690.38;5014025;28;20149;-81
2023/12/08 00:28:03;;;;;;;34.72;18.50;;;;;;;2.55;81.46;99685.94;5014029;28;20053;-81
2023/12/08 00:30:49;;;;;;;38.25;17.85;;;;;;;2.56;82.02;99684.16;5013873;28;20084;-81
2023/12/08 00:33:35;;;;;;;31.15;15.77;;;;;;;2.58;81.27;99690.06;5005383;28;20057;-81
2023/12/08 00:36:21;;;;;;;21.50;12.32;;;;;;;2.59;80.68;99691.69;5005530;28;20092;-81
2023/12/08 00:39:07;;;;;;;22.25;11.63;;;;;;;2.58;80.63;99684.00;5013809;28;20076;-82
2023/12/08 00:41:54;;;;;;;22.00;11.85;;;;;;;2.60;81.32;99688.09;5013914;28;20403;-82
2023/12/08 00:44:39;;;;;;;27.60;14.55;;;;;;;2.57;80.83;99682.34;5001445;28;20061;-81
2023/12/08 00:47:25;;;;;;;22.80;13.85;;;;;;;2.58;80.51;99681.38;5014796;28;20045;-81
2023/12/08 00:50:10;;;;;;;21.23;12.32;;;;;;;2.59;80.74;99689.06;5021382;28;20061;-82
2023/12/08 00:52:56;;;;;;;22.98;12.52;;;;;;;2.64;80.79;99691.19;5020273;28;20045;-81
2023/12/08 00:55:42;;;;;;;19.00;12.05;;;;;;;2.60;80.06;99682.00;5014332;28;20053;-81
2023/12/08 00:58:29;;;;;;;19.42;11.68;;;;;;;2.63;80.21;99685.09;5021322;28;20049;-82
2023/12/08 01:01:17;;;;;;;19.35;12.35;;;;;;;2.67;79.20;99686.44;5020332;28;20108;-80
2023/12/08 01:04:02;;;;;;;17.90;11.45;;;;;;;2.67;79.58;99686.44;5017748;28;20419;-81
2023/12/08 01:06:48;;;;;;;19.52;11.70;;;;;;;2.69;79.64;99691.50;5021595;28;20049;-81
2023/12/08 01:09:33;;;;;;;19.08;11.35;;;;;;;2.67;80.23;99685.63;5023646;28;20056;-82
2023/12/08 01:12:19;;;;;;;18.73;11.27;;;;;;;2.66;79.91;99671.66;5019470;28;20049;-82
2023/12/08 01:15:05;;;;;;;26.25;13.30;;;;;;;2.66;79.78;99670.84;5011392;28;20045;-81
2023/12/08 01:17:50;;;;;;;29.27;12.40;;;;;;;2.60;79.97;99664.47;5014003;28;20037;-83
2023/12/08 01:20:37;;;;;;;24.25;12.65;;;;;;;2.61;80.49;99660.84;5013764;28;20045;-81
2023/12/08 01:23:22;;;;;;;21.23;12.80;;;;;;;2.62;80.93;99670.34;5014304;28;20053;-83
2023/12/08 01:26:09;;;;;;;22.25;11.55;;;;;;;2.63;79.98;99669.38;5014848;28;20048;-83
2023/12/08 01:28:54;;;;;;;23.40;11.48;;;;;;;2.64;80.11;99663.16;5018967;28;20098;-83
2023/12/08 01:31:40;;;;;;;19.30;10.48;;;;;;;2.66;79.25;99663.78;5018791;28;20060;-81
2023/12/08 01:34:27;;;;;;;16.73;9.27;;;;;;;2.71;77.84;99660.66;5026417;28;20057;-82
2023/12/08 01:37:12;;;;;;;17.10;9.55;;;;;;;2.75;78.03;99660.16;5011686;28;20423;-82
2023/12/08 01:39:58;;;;;;;12.70;8.68;;;;;;;2.75;77.96;99661.97;5011573;28;20045;-82
2023/12/08 01:42:44;;;;;;;14.15;8.48;;;;;;;2.78;77.44;99661.63;5012415;28;20069;-80
2023/12/08 01:45:30;;;;;;;13.55;7.95;;;;;;;2.81;77.77;99657.84;5012546;28;20400;-82
2023/12/08 01:48:16;;;;;;;14.15;8.93;;;;;;;2.83;77.16;99658.50;5018510;28;20507;-82
2023/12/08 01:51:03;;;;;;;16.73;8.68;;;;;;;2.81;77.10;99649.97;5011860;28;20053;-82
2023/12/08 01:53:49;;;;;;;11.20;7.97;;;;;;;2.77;77.50;99645.06;5001796;28;20068;-82
2023/12/08 01:56:34;;;;;;;14.52;8.18;;;;;;;2.80;76.79;99646.53;5016383;28;20076;-81
2023/12/08 01:59:20;;;;;;;13.18;8.25;;;;;;;2.80;76.30;99643.09;5015496;28;20060;-82
2023/12/08 02:02:05;;;;;;;12.75;7.90;;;;;;;2.84;75.76;99645.19;5015584;28;20189;-81
2023/12/08 02:04:55;;;;;;;12.25;7.53;;;;;;;2.85;76.27;99640.75;5016283;28;20052;-80
2023/12/08 02:07:40;;;;;;;12.52;7.68;;;;;;;2.87;75.67;99650.13;5015230;28;20525;-81
2023/12/08 02:10:28;;;;;;;14.65;6.22;;;;;;;3.00;73.85;99650.38;5016005;28;20037;-80
2023/12/08 02:13:14;;;;;;;8.20;5.13;;;;;;;3.08;72.90;99656.63;5015446;28;20057;-80
2023/12/08 02:16:08;;;;;;;15.85;8.55;;;;;;;2.95;74.14;99650.09;5021788;28;20041;-81
2023/12/08 02:18:53;;;;;;;13.02;7.35;;;;;;;3.01;74.32;99656.47;5016574;28;20049;-82
2023/12/08 02:21:40;;;;;;;18.35;10.55;;;;;;;2.91;75.90;99651.41;5015404;28;20064;-80
2023/12/08 02:24:27;;;;;;;19.13;10.55;;;;;;;2.72;78.18;99647.38;5015206;28;20060;-81
2023/12/08 02:27:13;;;;;;;19.67;10.93;;;;;;;2.64;78.44;99647.41;5028867;28;20094;-80
2023/12/08 02:29:59;;;;;;;18.25;10.60;;;;;;;2.61;77.88;99645.13;5016294;28;20049;-80
2023/12/08 02:33:09;;;;;;;22.30;11.80;;;;;;;2.59;79.03;99651.50;5028144;28;20082;-80
2023/12/08 02:35:55;;;;;;;22.92;11.93;;;;;;;2.55;79.24;99653.66;5021073;28;20168;-82
2023/12/08 02:38:41;;;;;;;27.95;13.27;;;;;;;2.55;79.29;99651.84;5020818;28;20053;-81
2023/12/08 02:41:27;;;;;;;25.00;13.77;;;;;;;2.49;79.37;99636.78;5001010;28;20498;-82
2023/12/08 02:44:12;;;;;;;22.02;11.70;;;;;;;2.55;79.19;99654.47;5015142;28;20053;-80
2023/12/08 02:46:58;;;;;;;34.97;15.25;;;;;;;2.55;79.29;99651.84;5015617;28;20073;-80
2023/12/08 02:49:43;;;;;;;23.23;12.57;;;;;;;2.55;78.46;99641.34;5014763;28;20053;-82
2023/12/08 02:52:29;;;;;;;26.77;13.75;;;;;;;2.61;78.10;99654.78;5015401;28;20049;-80
2023/12/08 02:55:15;;;;;;;39.13;26.63;;;;;;;2.58;78.52;99650.69;5015921;28;20057;-80
2023/12/08 02:58:00;;;;;;;28.92;15.65;;;;;;;2.60;77.57;99653.97;5014786;28;20053;-80
2023/12/08 03:00:45;;;;;;;28.08;13.25;;;;;;;2.49;77.85;99631.53;5022367;28;20044;-80
2023/12/08 03:03:30;;;;;;;23.35;12.48;;;;;;;2.59;77.98;99656.75;5014420;28;20068;-81
2023/12/08 03:06:16;;;;;;;17.90;9.73;;;;;;;2.58;78.01;99652.50;5015175;28;20391;-80
2023/12/08 03:09:02;;;;;;;20.83;9.60;;;;;;;2.54;78.24;99652.03;5007329;28;20061;-80
2023/12/08 03:11:47;;;;;;;131.25;64.90;;;;;;;2.48;79.42;99650.06;5015506;28;20053;-82
2023/12/08 03:14:33;;;;;;;28.55;16.40;;;;;;;2.46;79.36;99650.22;5015210;28;20060;-82
2023/12/08 03:17:18;;;;;;;52.08;33.35;;;;;;;2.42;79.49;99654.16;5020581;28;20105;-82
2023/12/08 03:20:04;;;;;;;111.53;69.30;;;;;;;2.49;79.24;99656.94;5015059;28;20065;-80
2023/12/08 03:22:51;;;;;;;20.98;12.98;;;;;;;2.48;79.60;99660.56;5014117;28;20048;-81
2023/12/08 03:25:38;;;;;;;15.43;9.75;;;;;;;2.49;79.09;99662.19;5020878;28;20048;-80
2023/12/08 03:28:25;;;;;;;17.17;10.45;;;;;;;2.43;78.88;99653.19;5014447;28;20041;-80
2023/12/08 03:31:25;;;;;;;17.92;10.23;;;;;;;2.47;78.85;99658.91;5014722;28;20400;-82
2023/12/08 03:34:11;;;;;;;32.30;15.60;;;;;;;2.45;79.51;99660.91;5021360;28;20053;-82
2023/12/08 03:36:56;;;;;;;27.45;12.00;;;;;;;2.38;78.60;99650.22;5027815;28;20045;-83
2023/12/08 03:39:43;;;;;;;17.65;10.73;;;;;;;2.47;78.50;99653.66;5013889;28;20056;-81
2023/12/08 03:42:34;;;;;;;21.42;11.75;;;;;;;2.49;77.89;99660.38;5027555;28;20060;-83
2023/12/08 03:45:20;;;;;;;24.23;12.05;;;;;;;2.50;77.79;99659.38;5015016;28;20053;-83
2023/12/08 03:48:05;;;;;;;23.05;11.98;;;;;;;2.54;78.09;99654.66;5021231;28;20073;-82
2023/12/08 03:50:50;;;;;;;23.65;11.40;;;;;;;2.48;78.33;99647.44;5013617;28;20044;-83
2023/12/08 03:53:39;;;;;;;14.98;9.40;;;;;;;2.47;78.17;99651.84;5013706;28;20077;-80
2023/12/08 03:56:25;;;;;;;16.33;9.55;;;;;;;2.45;78.40;99648.59;5014560;28;20060;-80
2023/12/08 03:59:11;;;;;;;15.25;9.48;;;;;;;2.53;78.57;99658.25;5017426;28;20057;-80
2023/12/08 04:01:57;;;;;;;15.75;9.68;;;;;;;2.53;77.70;99653.00;5014674;28;20053;-80
2023/12/08 04:04:42;;;;;;;15.50;9.43;;;;;;;2.53;77.18;99655.63;5014685;28;20049;-82
2023/12/08 04:07:27;;;;;;;20.45;11.18;;;;;;;2.53;77.80;99658.25;5013283;28;20057;-81
2023/12/08 04:10:13;;;;;;;17.40;11.07;;;;;;;2.51;77.71;99657.59;5027514;28;20057;-81
2023/12/08 04:12:59;;;;;;;21.92;12.20;;;;;;;2.47;77.76;99659.72;5015083;28;20542;-83
2023/12/08 04:15:44;;;;;;;23.60;13.32;;;;;;;2.46;78.61;99662.53;5014235;28;20064;-80
2023/12/08 04:18:29;;;;;;;20.75;12.82;;;;;;;2.46;78.30;99662.53;5019397;28;20387;-81
2023/12/08 04:21:19;;;;;;;25.17;13.68;;;;;;;2.49;78.09;99657.75;5013157;28;20053;-82
2023/12/08 04:24:04;;;;;;;19.88;11.88;;;;;;;2.46;77.94;99658.09;5013279;28;20200;-80
2023/12/08 04:26:50;;;;;;;19.15;12.18;;;;;;;2.48;78.27;99660.56;5013905;28;20053;-81
2023/12/08 04:29:36;;;;;;;18.92;12.00;;;;;;;2.46;78.54;99657.28;5013044;28;20049;-80
2023/12/08 04:32:22;;;;;;;22.17;12.50;;;;;;;2.46;78.70;99658.09;5020372;28;20053;-80
2023/12/08 04:35:08;;;;;;;21.83;14.07;;;;;;;2.37;79.26;99645.16;5006028;28;20049;-82
2023/12/08 04:37:54;;;;;;;21.90;12.52;;;;;;;2.42;79.84;99655.97;5033223;28;20049;-80
2023/12/08 04:40:40;;;;;;;23.63;13.02;;;;;;;2.36;80.00;99651.41;5014786;28;20053;-80
2023/12/08 04:43:26;;;;;;;23.77;13.48;;;;;;;2.33;80.31;99656.97;5026367;28;20052;-81
2023/12/08 04:46:12;;;;;;;22.92;12.88;;;;;;;2.29;80.37;99654.69;5040972;28;20052;-81
2023/12/08 04:48:58;;;;;;;27.60;12.88;;;;;;;2.33;81.08;99662.22;5021202;28;20434;-82
2023/12/08 04:51:43;;;;;;;25.67;13.82;;;;;;;2.32;80.65;99656.16;5021490;28;20068;-81
2023/12/08 04:54:29;;;;;;;28.90;15.00;;;;;;;2.30;80.93;99658.94;5021614;28;20060;-81
2023/12/08 04:57:26;;;;;;;32.60;18.48;;;;;;;2.24;81.13;99651.72;5021191;28;20423;-82
2023/12/08 05:00:12;;;;;;;29.92;17.95;;;;;;;2.25;81.39;99655.16;5018247;28;20053;-82
2023/12/08 05:02:58;;;;;;;30.70;17.88;;;;;;;2.23;81.56;99657.97;5014323;28;20506;-82
2023/12/08 05:05:44;;;;;;;26.95;15.60;;;;;;;2.20;81.72;99663.53;5019257;28;20057;-82
2023/12/08 05:08:29;;;;;;;29.13;16.33;;;;;;;2.19;80.99;99661.06;5018534;28;20068;-82
2023/12/08 05:11:15;;;;;;;30.05;16.08;;;;;;;2.20;80.86;99658.28;5013903;28;20510;-83
2023/12/08 05:14:02;;;;;;;25.35;15.25;;;;;;;2.17;81.32;99661.25;5013431;28;20061;-81
2023/12/08 05:16:50;;;;;;;26.30;14.77;;;;;;;2.14;81.57;99655.50;5012355;28;20053;-83
2023/12/08 05:19:37;;;;;;;25.73;14.25;;;;;;;2.17;81.50;99661.25;5013042;28;20579;-82
2023/12/08 05:22:26;;;;;;;24.63;13.98;;;;;;;2.17;81.71;99663.88;5013202;28;20049;-81
2023/12/08 05:25:12;;;;;;;25.73;14.95;;;;;;;2.16;82.30;99654.34;5013576;28;20392;-82
2023/12/08 05:27:57;;;;;;;29.10;16.95;;;;;;;2.14;82.59;99658.13;5013789;28;20075;-81
2023/12/08 05:30:43;;;;;;;29.70;16.75;;;;;;;2.16;81.80;99664.00;5022603;28;20056;-82
2023/12/08 05:33:29;;;;;;;23.83;14.50;;;;;;;2.13;82.11;99659.09;5016958;28;20053;-82
2023/12/08 05:36:14;;;;;;;25.02;13.93;;;;;;;2.18;81.15;99660.25;5015460;28;20590;-82
2023/12/08 05:39:01;;;;;;;29.80;16.52;;;;;;;2.17;80.55;99660.44;5016094;28;20053;-82
2023/12/08 05:41:47;;;;;;;29.33;16.10;;;;;;;2.19;80.45;99661.06;5022745;28;20060;-83
2023/12/08 05:44:33;;;;;;;32.00;18.73;;;;;;;2.15;81.00;99657.97;5016333;28;20057;-82
2023/12/08 05:47:19;;;;;;;30.75;16.83;;;;;;;2.11;80.94;99654.03;5015778;28;20407;-82
2023/12/08 05:50:07;;;;;;;30.83;15.45;;;;;;;2.13;80.85;99652.06;5017295;28;20053;-81
2023/12/08 05:52:53;;;;;;;29.20;16.98;;;;;;;2.14;80.41;99656.31;5023275;28;20395;-81
2023/12/08 05:55:39;;;;;;;39.13;20.05;;;;;;;2.11;81.13;99658.47;5015864;28;20048;-81
2023/12/08 05:58:26;;;;;;;38.10;20.98;;;;;;;2.12;81.95;99666.16;5016970;28;20045;-81
2023/12/08 06:01:13;;;;;;;43.22;21.67;;;;;;;2.12;81.94;99663.53;5022174;28;20053;-83
2023/12/08 06:04:00;;;;;;;41.10;21.48;;;;;;;2.19;82.88;99661.06;5008221;28;20052;-82
2023/12/08 06:06:46;;;;;;;41.70;23.30;;;;;;;2.22;82.85;99677.28;5021718;28;20052;-83
2023/12/08 06:09:32;;;;;;;46.92;24.63;;;;;;;2.15;82.86;99673.69;5015645;28;20057;-82
2023/12/08 06:12:18;;;;;;;43.20;25.50;;;;;;;2.15;82.61;99668.44;5015320;28;20045;-83
2023/12/08 06:15:09;;;;;;;42.08;25.42;;;;;;;2.09;82.63;99666.47;5014934;28;20056;-81
2023/12/08 06:17:55;;;;;;;46.05;23.73;;;;;;;2.06;83.37;99664.19;5014852;28;20069;-82
2023/12/08 06:20:41;;;;;;;31.55;19.58;;;;;;;2.03;83.75;99672.38;5017038;28;20396;-83
2023/12/08 06:23:27;;;;;;;41.15;20.42;;;;;;;2.03;83.92;99670.56;5016035;28;20407;-82
2023/12/08 06:26:12;;;;;;;27.77;14.20;;;;;;;2.08;82.30;99664.84;5007695;28;20506;-81
2023/12/08 06:28:58;;;;;;;34.45;19.67;;;;;;;2.14;82.95;99672.06;5021398;28;20045;-82
2023/12/08 06:31:44;;;;;;;43.35;21.05;;;;;;;2.12;82.47;99666.16;5021656;28;20117;-82
2023/12/08 06:34:30;;;;;;;38.85;21.08;;;;;;;2.17;81.82;99674.34;5028850;28;20100;-82
2023/12/08 06:37:17;;;;;;;38.75;20.23;;;;;;;2.24;81.59;99683.19;5022621;28;20057;-82
2023/12/08 06:40:03;;;;;;;42.03;22.88;;;;;;;2.25;82.04;99692.69;5015885;28;20506;-81
2023/12/08 06:42:55;;;;;;;42.30;21.00;;;;;;;2.23;81.24;99688.63;5035029;28;20063;-82
2023/12/08 06:45:42;;;;;;;40.38;22.60;;;;;;;2.22;81.89;99682.53;5014558;28;20514;-83
2023/12/08 06:48:27;;;;;;;37.25;22.88;;;;;;;2.26;81.28;99688.28;5015472;28;20057;-82
2023/12/08 06:51:13;;;;;;;36.95;21.60;;;;;;;2.26;81.44;99686.47;5015535;28;20068;-81
2023/12/08 06:53:59;;;;;;;47.88;24.15;;;;;;;2.28;81.42;99681.06;5015115;28;20064;-81
2023/12/08 06:56:44;;;;;;;41.60;24.75;;;;;;;2.29;81.40;99678.28;5028291;28;20046;-81
2023/12/08 06:59:31;;;;;;;38.63;21.38;;;;;;;2.33;81.10;99681.41;5031811;28;20066;-82
2023/12/08 07:02:17;;;;;;;41.00;22.83;;;;;;;2.33;80.38;99676.16;5035125;28;20052;-82
2023/12/08 07:05:02;;;;;;;33.47;19.92;;;;;;;2.36;79.23;99677.63;5016091;28;20053;-83
2023/12/08 07:07:48;;;;;;;36.05;21.10;;;;;;;2.39;78.83;99679.91;5020814;28;20408;-81
2023/12/08 07:10:34;;;;;;;37.55;21.95;;;;;;;2.34;79.40;99667.28;5020778;28;20056;-81
2023/12/08 07:13:20;;;;;;;34.30;20.00;;;;;;;2.48;79.17;99681.56;5034577;28;20061;-81
2023/12/08 07:16:09;;;;;;;41.05;21.65;;;;;;;2.51;78.54;99683.84;5015221;28;20053;-83
2023/12/08 07:18:54;;;;;;;38.92;20.30;;;;;;;2.53;78.69;99672.16;5014224;28;20049;-83
2023/12/08 07:21:44;;;;;;;32.30;19.20;;;;;;;2.51;79.06;99670.72;5015057;28;20052;-83
2023/12/08 07:24:29;;;;;;;32.55;18.42;;;;;;;2.53;78.66;99669.53;5020399;28;20401;-83
2023/12/08 07:27:15;;;;;;;33.72;20.92;;;;;;;2.62;78.66;99672.97;5014422;28;20045;-81
2023/12/08 07:30:03;;;;;;;30.77;19.77;;;;;;;2.63;78.32;99677.22;5013747;28;20403;-83
2023/12/08 07:32:48;;;;;;;31.17;19.08;;;;;;;2.71;77.33;99681.66;5014331;28;20057;-82
2023/12/08 07:35:33;;;;;;;29.05;18.20;;;;;;;2.72;78.03;99670.16;5034389;28;20534;-83
2023/12/08 07:38:19;;;;;;;32.72;19.05;;;;;;;2.79;77.35;99684.28;5015146;28;20049;-83
2023/12/08 07:41:06;;;;;;;35.47;19.77;;;;;;;2.76;77.46;99672.31;5014385;28;20053;-83
2023/12/08 07:43:54;;;;;;;35.33;21.02;;;;;;;2.90;77.83;99683.09;5013869;28;20053;-81
2023/12/08 07:46:40;;;;;;;33.08;20.17;;;;;;;2.93;76.83;99675.69;5013956;28;20061;-82
2023/12/08 07:49:25;;;;;;;29.23;17.30;;;;;;;2.98;76.52;99677.81;4999597;28;20065;-82
2023/12/08 07:52:14;;;;;;;24.73;15.00;;;;;;;3.03;76.68;99683.38;4992935;28;20057;-81
2023/12/08 07:55:00;;;;;;;25.98;15.93;;;;;;;3.02;75.55;99681.75;5012813;28;20052;-81
2023/12/08 07:57:46;;;;;;;31.98;18.35;;;;;;;3.10;76.23;99675.63;5013443;28;20534;-83
2023/12/08 08:00:33;;;;;;;25.80;15.20;;;;;;;3.15;75.40;99679.38;4998791;28;20408;-80
2023/12/08 08:03:20;;;;;;;28.40;15.05;;;;;;;3.18;75.12;99684.31;5011772;28;20052;-79
2023/12/08 08:06:06;;;;;;;33.40;15.07;;;;;;;3.18;74.58;99684.31;5013447;28;20549;-82
2023/12/08 08:08:53;;;;;;;29.98;17.92;;;;;;;3.31;74.74;99688.19;5013631;28;20391;-77
2023/12/08 08:11:41;;;;;;;26.08;13.90;;;;;;;3.36;73.86;99675.38;5020263;28;20053;-77
2023/12/08 08:14:27;;;;;;;26.17;15.73;;;;;;;3.38;74.06;99687.31;5012432;28;20060;-75
2023/12/08 08:17:12;;;;;;;21.10;13.98;;;;;;;3.42;73.15;99682.56;5013475;28;20045;-78
2023/12/08 08:19:58;;;;;;;25.25;15.43;;;;;;;3.45;74.24;99676.97;5026145;28;20499;-80
2023/12/08 08:22:43;;;;;;;25.27;15.90;;;;;;;3.37;75.36;99679.63;5013363;28;20049;-79
2023/12/08 08:25:29;;;;;;;29.00;17.70;;;;;;;3.53;75.26;99686.59;5012736;28;20060;-80
2023/12/08 08:28:15;;;;;;;23.88;14.30;;;;;;;3.50;73.38;99674.63;5013300;28;20053;-76
2023/12/08 08:31:01;;;;;;;25.42;15.32;;;;;;;3.63;73.75;99680.13;5019819;28;20372;-77
2023/12/08 08:33:47;;;;;;;16.70;9.98;;;;;;;3.69;71.23;99681.25;5013501;28;20053;-79
2023/12/08 08:36:32;;;;;;;24.95;13.95;;;;;;;3.70;72.08;99673.19;4998806;28;20057;-77
2023/12/08 08:39:20;;;;;;;29.67;16.38;;;;;;;3.86;72.06;99695.13;5012916;28;20380;-81
2023/12/08 08:42:07;;;;;;;19.55;12.18;;;;;;;3.76;70.77;99687.47;4998907;28;20056;-79
2023/12/08 08:44:53;;;;;;;19.60;12.75;;;;;;;3.76;71.90;99691.88;5013570;28;20380;-78
2023/12/08 08:47:39;;;;;;;24.80;14.23;;;;;;;3.72;70.98;99689.59;5013226;28;20053;-77
2023/12/08 08:50:24;;;;;;;26.25;17.30;;;;;;;3.74;70.98;99694.69;5025676;28;20408;-81
2023/12/08 08:53:10;;;;;;;24.95;16.02;;;;;;;3.67;71.59;99694.56;5018661;28;20057;-76
2023/12/08 08:55:56;;;;;;;32.03;17.83;;;;;;;3.71;72.39;99684.53;5013073;28;20064;-78
2023/12/08 08:58:42;;;;;;;29.25;17.48;;;;;;;3.67;72.44;99668.28;5013058;28;20057;-83
2023/12/08 09:01:28;;;;;;;26.40;15.95;;;;;;;3.68;72.68;99688.31;5045698;28;20371;-76
2023/12/08 09:04:14;;;;;;;31.35;19.15;;;;;;;3.69;72.36;99674.16;5044943;28;20091;-75
2023/12/08 09:07:00;;;;;;;20.77;13.82;;;;;;;3.76;71.64;99674.31;5045956;28;20399;-76
2023/12/08 09:09:45;;;;;;;20.63;13.05;;;;;;;3.85;71.43;99682.94;5030959;28;20075;-76
2023/12/08 09:12:31;;;;;;;21.05;13.77;;;;;;;3.93;71.23;99682.91;5045468;28;20475;-76
2023/12/08 09:15:17;;;;;;;22.23;13.43;;;;;;;3.95;70.65;99659.88;5052118;28;20387;-77
2023/12/08 09:18:03;;;;;;;24.88;13.95;;;;;;;4.03;69.44;99659.81;5045465;28;20047;-78
2023/12/08 09:20:48;;;;;;;26.23;15.48;;;;;;;4.05;69.77;99660.47;5051525;28;20558;-77
2023/12/08 09:23:33;;;;;;;25.77;15.13;;;;;;;4.11;68.94;99670.28;5045660;28;20048;-77
2023/12/08 09:26:19;;;;;;;22.63;14.20;;;;;;;4.12;69.68;99665.81;5044153;28;20392;-78
2023/12/08 09:29:04;;;;;;;24.48;15.18;;;;;;;3.98;69.92;99662.16;5030465;28;20502;-77
2023/12/08 09:31:51;;;;;;;30.52;17.27;;;;;;;3.94;70.77;99656.41;5052260;28;20044;-78
2023/12/08 09:34:38;;;;;;;35.78;17.88;;;;;;;3.98;71.36;99658.69;5052398;28;20043;-77
2023/12/08 09:37:23;;;;;;;27.23;16.83;;;;;;;3.80;69.90;99646.69;5042937;28;20068;-77
2023/12/08 09:40:11;;;;;;;28.05;16.90;;;;;;;3.98;70.48;99633.25;5044840;28;20048;-77
2023/12/08 09:42:59;;;;;;;26.90;16.73;;;;;;;4.18;69.46;99654.59;5044198;28;20047;-77
2023/12/08 09:45:46;;;;;;;28.25;16.98;;;;;;;4.24;69.70;99653.06;5043842;28;20048;-78
2023/12/08 09:48:34;;;;;;;28.10;15.43;;;;;;;4.23;70.43;99644.38;5042982;28;20052;-77
2023/12/08 09:51:19;;;;;;;30.38;16.75;;;;;;;4.38;70.29;99644.38;5022780;28;20412;-78
2023/12/08 09:54:05;;;;;;;29.50;17.30;;;;;;;4.41;69.28;99641.38;5049959;28;20051;-78
2023/12/08 09:56:52;;;;;;;27.75;16.80;;;;;;;4.39;70.19;99636.31;5051864;28;20043;-79
2023/12/08 09:59:38;;;;;;;27.75;16.60;;;;;;;4.32;69.97;99631.94;5048082;28;20075;-79
2023/12/08 10:02:24;;;;;;;33.83;17.55;;;;;;;4.32;69.57;99624.03;5044804;28;20413;-78
2023/12/08 10:05:10;;;;;;;40.63;21.77;;;;;;;4.28;69.10;99617.50;5044735;28;20099;-77
2023/12/08 10:07:57;;;;;;;28.30;17.05;;;;;;;4.42;69.66;99622.00;5051435;28;20511;-76
2023/12/08 10:10:42;;;;;;;25.42;16.20;;;;;;;4.27;68.55;99621.16;5041224;28;20407;-77
2023/12/08 10:13:28;;;;;;;28.63;15.65;;;;;;;4.41;68.60;99626.41;5031147;28;20052;-78
2023/12/08 10:16:13;;;;;;;21.95;14.10;;;;;;;4.49;68.32;99615.00;5031509;28;20051;-76
2023/12/08 10:19:09;;;;;;;23.70;14.77;;;;;;;4.52;68.18;99612.00;5030661;28;20407;-77
2023/12/08 10:22:05;;;;;;;25.38;15.68;;;;;;;4.50;67.50;99615.81;5030865;28;20047;-78
2023/12/08 10:24:50;;;;;;;23.63;15.13;;;;;;;4.54;67.67;99599.47;5038054;28;20388;-76
2023/12/08 10:27:36;;;;;;;23.33;15.10;;;;;;;4.62;68.40;99603.84;5030082;28;20064;-79
2023/12/08 10:30:24;;;;;;;26.50;13.82;;;;;;;4.73;66.98;99592.03;5030822;28;20040;-77
2023/12/08 10:33:20;;;;;;;21.27;12.48;;;;;;;4.72;65.66;99600.94;5031052;28;20044;-78
2023/12/08 10:36:05;;;;;;;;;;;;;;;4.64;65.37;99594.75;5030021;28;20076;-76
2023/12/08 10:38:50;;;;;;;22.95;14.07;;;;;;;4.44;66.64;99585.75;5030633;28;20375;-78
2023/12/08 10:41:35;;;;;;;29.17;16.25;;;;;;;4.66;66.93;99585.84;5015775;28;20044;-78
2023/12/08 10:44:22;;;;;;;30.77;18.38;;;;;;;4.72;66.96;99587.75;5030075;28;20060;-76
2023/12/08 10:47:07;;;;;;;33.17;17.95;;;;;;;4.96;67.19;99595.38;5031774;28;20409;-77
2023/12/08 10:49:53;;;;;;;26.83;16.40;;;;;;;5.05;66.15;99583.72;5038916;28;20052;-76
2023/12/08 10:52:38;;;;;;;35.15;18.05;;;;;;;5.08;66.04;99574.66;5036104;28;20404;-76
2023/12/08 10:55:24;;;;;;;30.50;17.98;;;;;;;4.98;65.65;99574.09;5036757;28;20361;-77
2023/12/08 10:58:14;;;;;;;28.75;18.17;;;;;;;4.72;67.25;99570.16;5030757;28;20064;-77
2023/12/08 11:01:02;;;;;;;31.20;17.60;;;;;;;4.88;66.31;99583.09;5031124;28;20487;-77
2023/12/08 11:03:48;;;;;;;26.42;16.00;;;;;;;4.79;65.85;99580.75;5036431;28;20064;-77
2023/12/08 11:06:42;;;;;;;28.90;16.25;;;;;;;4.62;65.93;99586.22;5035936;28;20068;-78
2023/12/08 11:09:28;;;;;;;32.05;16.67;;;;;;;4.68;65.26;99575.97;5015839;28;20048;-77
2023/12/08 11:12:13;;;;;;;26.35;15.93;;;;;;;4.74;64.68;99567.34;5036351;28;20064;-77
2023/12/08 11:15:04;;;;;;;24.88;14.25;;;;;;;4.73;64.56;99566.53;5035962;28;20047;-77
2023/12/08 11:18:04;;;;;;;20.73;11.65;;;;;;;4.84;63.54;99573.13;5029953;28;20511;-77
2023/12/08 11:20:50;;;;;;;17.10;10.75;;;;;;;4.94;63.85;99560.50;5028958;28;20052;-77
2023/12/08 11:23:44;;;;;;;23.92;14.40;;;;;;;5.00;64.49;99553.66;5034910;28;20051;-77
2023/12/08 11:26:41;;;;;;;31.13;18.15;;;;;;;4.98;67.58;99556.50;5028674;28;20052;-77
2023/12/08 11:29:35;;;;;;;35.33;20.45;;;;;;;4.95;66.80;99551.59;5034898;28;20404;-78
2023/12/08 11:32:31;;;;;;;31.85;20.10;;;;;;;4.98;67.52;99567.03;5029892;28;20490;-77
2023/12/08 11:35:18;;;;;;;28.70;18.35;;;;;;;4.96;67.42;99557.69;5028864;28;20400;-77
2023/12/08 11:38:05;;;;;;;30.23;18.25;;;;;;;4.97;66.58;99552.22;5028389;28;20056;-77
2023/12/08 11:40:54;;;;;;;38.55;23.13;;;;;;;5.00;67.24;99543.13;5030031;28;20072;-77
2023/12/08 11:43:46;;;;;;;51.60;27.38;;;;;;;5.04;67.18;99550.47;5029442;28;20408;-77
2023/12/08 11:46:31;;;;;;;34.05;19.33;;;;;;;4.91;67.28;99539.78;5029227;28;20372;-77
2023/12/08 11:49:18;;;;;;;31.88;16.75;;;;;;;4.83;67.05;99547.81;5035222;28;20056;-77
2023/12/08 11:52:48;;;;;;;30.85;18.52;;;;;;;4.84;68.21;99541.53;5035364;28;20048;-76
2023/12/08 11:55:34;;;;;;;29.92;18.83;;;;;;;4.92;67.98;99544.06;5025665;28;20067;-77
2023/12/08 11:58:24;;;;;;;31.75;18.50;;;;;;;5.02;65.43;99541.94;5029761;28;20064;-77
2023/12/08 12:01:10;;;;;;;31.63;18.30;;;;;;;5.02;65.19;99549.84;5031047;28;20412;-77
2023/12/08 12:03:56;;;;;;;31.80;18.35;;;;;;;5.00;65.76;99538.69;5034162;28;20412;-78
2023/12/08 12:06:43;;;;;;;33.28;18.98;;;;;;;5.03;66.65;99537.50;5035787;28;20119;-76
2023/12/08 12:09:29;;;;;;;29.58;18.42;;;;;;;5.06;67.03;99523.94;5028654;28;20476;-77
2023/12/08 12:12:27;;;;;;;24.30;16.00;;;;;;;5.26;63.25;99529.41;5027887;28;20052;-78
2023/12/08 12:15:14;;;;;;;24.63;16.15;;;;;;;5.36;64.01;99514.13;5027512;28;20091;-77
2023/12/08 12:18:01;;;;;;;27.52;16.55;;;;;;;5.38;64.66;99514.75;5034311;28;20487;-77
2023/12/08 12:20:45;;;;;;;28.05;17.27;;;;;;;5.25;64.05;99504.06;5028218;28;20400;-77
2023/12/08 12:23:31;;;;;;;29.83;16.50;;;;;;;5.19;64.31;99523.28;5028935;28;20130;-77
2023/12/08 12:26:20;;;;;;;29.17;16.55;;;;;;;5.26;64.95;99521.50;5035626;28;20060;-77
2023/12/08 12:29:05;;;;;;;52.47;24.80;;;;;;;5.19;63.18;99521.44;5027952;28;20400;-77
2023/12/08 12:31:51;;;;;;;45.15;25.48;;;;;;;5.20;65.71;99511.72;5028488;28;20067;-77
2023/12/08 12:34:38;;;;;;;51.38;28.00;;;;;;;5.23;66.57;99516.63;5028446;28;20479;-77
2023/12/08 12:37:24;;;;;;;40.97;20.27;;;;;;;5.20;66.07;99507.28;5027168;28;20393;-77
2023/12/08 12:40:11;;;;;;;79.57;37.50;;;;;;;5.32;63.01;99515.50;5028536;28;20625;-77
2023/12/08 12:42:57;;;;;;;85.18;40.08;;;;;;;5.04;63.59;99504.88;5028282;28;20051;-77
2023/12/08 12:45:43;;;;;;;38.60;18.80;;;;;;;5.01;65.17;99518.41;5028597;28;20059;-77
2023/12/08 12:48:28;;;;;;;27.48;17.48;;;;;;;4.87;65.68;99520.91;5027946;28;20519;-77
2023/12/08 12:51:14;;;;;;;38.85;24.50;;;;;;;4.99;64.75;99520.44;5035092;28;20385;-77
2023/12/08 12:54:00;;;;;;;39.70;22.50;;;;;;;4.93;64.35;99518.53;5028907;28;20404;-76
2023/12/08 12:56:49;;;;;;;32.13;16.33;;;;;;;4.75;63.95;99511.03;5026654;28;20492;-77